createdAt,value
2019-02-09T00:02:36.115Z,5.40
2019-02-09T00:07:40.142Z,5.40
2019-02-09T00:12:44.139Z,5.49
2019-02-09T00:17:48.134Z,5.42
2019-02-09T00:22:52.195Z,5.40
2019-02-09T00:27:56.206Z,5.45
2019-02-09T00:33:00.247Z,5.46
2019-02-09T00:38:04.266Z,5.47
2019-02-09T00:43:08.263Z,5.48
2019-02-09T00:48:12.265Z,5.41
2019-02-09T00:53:16.273Z,5.43
2019-02-09T00:58:20.319Z,5.50
2019-02-09T01:03:24.323Z,5.52
2019-02-09T01:08:28.306Z,5.51
2019-02-09T01:13:32.310Z,5.54
2019-02-09T01:18:36.303Z,5.46
2019-02-09T01:23:40.291Z,5.47
2019-02-09T01:28:44.294Z,5.42
2019-02-09T01:33:48.292Z,5.38
2019-02-09T01:38:52.288Z,5.43
2019-02-09T01:43:56.270Z,5.32
2019-02-09T01:49:00.283Z,5.24
2019-02-09T01:54:04.321Z,5.23
2019-02-09T01:59:08.376Z,5.27
2019-02-09T02:04:12.375Z,5.27
2019-02-09T02:09:16.358Z,5.24
2019-02-09T02:14:20.335Z,5.18
2019-02-09T02:19:24.325Z,5.19
2019-02-09T02:24:28.331Z,5.26
2019-02-09T02:29:32.323Z,5.12
2019-02-09T02:34:36.350Z,5.09
2019-02-09T02:39:40.327Z,5.03
2019-02-09T02:44:44.349Z,5.04
2019-02-09T02:49:48.349Z,5.12
2019-02-09T02:54:52.428Z,5.16
2019-02-09T02:59:56.427Z,5.24
2019-02-09T03:05:00.429Z,5.19
2019-02-09T03:10:05.197Z,5.28
2019-02-09T03:15:12.497Z,5.28
2019-02-09T03:20:17.602Z,5.36
2019-02-09T03:25:26.600Z,5.28
2019-02-09T03:30:30.622Z,5.19
2019-02-09T03:35:34.600Z,5.17
2019-02-09T03:40:38.613Z,5.20
2019-02-09T03:45:42.592Z,5.26
2019-02-09T03:50:46.578Z,5.27
2019-02-09T03:55:50.589Z,5.37
2019-02-09T04:00:55.812Z,5.50
2019-02-09T04:06:00.031Z,5.61
2019-02-09T04:11:04.019Z,5.71
2019-02-09T04:16:07.999Z,5.79
2019-02-09T04:21:12.008Z,5.81
2019-02-09T04:26:15.983Z,5.93
2019-02-09T04:31:19.993Z,5.99
2019-02-09T04:36:23.951Z,6.10
2019-02-09T04:41:27.922Z,6.18
2019-02-09T04:46:31.939Z,6.19
2019-02-09T04:51:35.920Z,6.26
2019-02-09T04:56:39.929Z,6.26
2019-02-09T05:01:43.942Z,6.35
2019-02-09T05:06:47.919Z,6.43
2019-02-09T05:11:51.930Z,6.51
2019-02-09T05:16:55.917Z,6.69
2019-02-09T05:21:59.892Z,6.71
2019-02-09T05:27:04.074Z,6.77
2019-02-09T05:32:08.218Z,6.79
2019-02-09T05:37:12.199Z,6.83
2019-02-09T05:42:16.173Z,6.83
2019-02-09T05:47:20.163Z,6.82
2019-02-09T05:52:24.174Z,6.82
2019-02-09T05:57:28.150Z,6.69
2019-02-09T06:02:32.146Z,6.58
2019-02-09T06:07:36.119Z,6.60
2019-02-09T06:12:40.096Z,6.53
2019-02-09T06:17:44.105Z,6.51
2019-02-09T06:22:48.080Z,6.54
2019-02-09T06:27:52.065Z,6.33
2019-02-09T06:32:56.038Z,6.21
2019-02-09T06:38:00.050Z,6.15
2019-02-09T06:43:04.028Z,6.01
2019-02-09T06:48:22.272Z,5.99
2019-02-09T06:53:26.250Z,5.93
2019-02-09T06:58:30.233Z,5.87
2019-02-09T07:03:34.234Z,5.86
2019-02-09T07:08:38.220Z,5.98
2019-02-09T07:13:42.200Z,5.99
2019-02-09T07:18:46.182Z,5.99
2019-02-09T07:23:50.179Z,5.94
2019-02-09T07:28:54.180Z,5.93
2019-02-09T07:33:58.162Z,5.93
2019-02-09T07:39:04.736Z,5.93
2019-02-09T07:44:08.746Z,5.83
2019-02-09T07:49:12.757Z,5.84
2019-02-09T07:54:16.745Z,5.80
2019-02-09T07:59:20.732Z,5.90
2019-02-09T08:04:24.712Z,5.84
2019-02-09T08:09:28.720Z,5.87
2019-02-09T08:14:32.712Z,5.85
2019-02-09T08:19:36.714Z,5.89
2019-02-09T08:24:40.711Z,5.80
2019-02-09T08:29:44.690Z,5.85
2019-02-09T08:34:48.696Z,5.99
2019-02-09T08:39:52.703Z,6.07
2019-02-09T08:44:56.747Z,6.20
2019-02-09T08:50:00.753Z,6.30
2019-02-09T08:55:05.227Z,6.30
2019-02-09T09:00:10.983Z,6.44
2019-02-09T09:05:15.017Z,6.43
2019-02-09T09:10:20.181Z,6.53
2019-02-09T09:15:29.833Z,6.72
2019-02-09T09:20:35.498Z,7.02
2019-02-09T09:25:39.488Z,7.10
2019-02-09T09:30:43.585Z,7.26
2019-02-09T09:35:47.589Z,7.50
2019-02-09T09:40:51.613Z,7.73
2019-02-09T09:45:55.604Z,7.85
2019-02-09T09:50:59.603Z,8.05
2019-02-09T09:56:03.603Z,8.25
2019-02-09T10:01:07.741Z,8.52
2019-02-09T10:06:11.725Z,9.81
2019-02-09T10:11:15.733Z,9.27
2019-02-09T10:16:19.742Z,10.49
2019-02-09T10:21:23.756Z,11.46
2019-02-09T10:26:27.793Z,10.92
2019-02-09T10:31:31.899Z,10.92
2019-02-09T10:36:35.930Z,10.69
2019-02-09T10:41:39.932Z,11.31
2019-02-09T10:46:43.952Z,11.56
2019-02-09T10:51:47.193Z,11.30
2019-02-09T10:56:51.199Z,12.11
2019-02-09T11:01:55.199Z,12.37
2019-02-09T11:06:59.230Z,11.42
2019-02-09T11:12:03.245Z,11.48
2019-02-09T11:17:07.265Z,10.56
2019-02-09T11:22:11.288Z,10.43
2019-02-09T11:27:18.248Z,11.79
2019-02-09T11:32:22.300Z,12.41
2019-02-09T11:37:26.311Z,11.50
2019-02-09T11:42:30.370Z,11.81
2019-02-09T11:47:34.383Z,11.61
2019-02-09T11:52:38.501Z,11.47
2019-02-09T11:57:42.579Z,11.89
2019-02-09T12:02:47.054Z,11.32
2019-02-09T12:07:51.191Z,10.94
2019-02-09T12:12:55.202Z,11.66
2019-02-09T12:17:59.194Z,12.11
2019-02-09T12:23:03.208Z,11.51
2019-02-09T12:28:07.978Z,11.44
2019-02-09T12:33:12.008Z,10.78
2019-02-09T12:38:16.014Z,10.32
2019-02-09T12:43:20.070Z,10.17
2019-02-09T12:48:24.086Z,10.61
2019-02-09T12:53:28.092Z,10.57
2019-02-09T12:58:32.459Z,10.41
2019-02-09T13:03:36.653Z,9.97
2019-02-09T13:08:40.645Z,10.41
2019-02-09T13:13:44.653Z,10.71
2019-02-09T13:18:48.733Z,10.86
2019-02-09T13:23:53.688Z,10.58
2019-02-09T13:28:57.695Z,10.24
2019-02-09T13:34:01.790Z,10.32
2019-02-09T13:39:08.149Z,10.24
2019-02-09T13:44:12.162Z,9.99
2019-02-09T13:49:15.423Z,10.03
2019-02-09T13:54:21.985Z,10.04
2019-02-09T13:59:26.050Z,10.06
2019-02-09T14:04:30.105Z,10.24
2019-02-09T14:09:34.156Z,10.28
2019-02-09T14:14:38.302Z,10.17
2019-02-09T14:19:42.408Z,10.28
2019-02-09T14:24:46.530Z,10.23
2019-02-09T14:29:52.661Z,10.34
2019-02-09T14:34:57.032Z,10.59
2019-02-09T14:40:03.342Z,10.46
2019-02-09T14:45:10.385Z,10.48
2019-02-09T14:50:16.131Z,10.50
2019-02-09T14:55:23.238Z,10.57
2019-02-09T15:00:35.375Z,10.65
2019-02-09T15:05:40.583Z,10.58
2019-02-09T15:10:44.656Z,10.45
2019-02-09T15:16:03.243Z,10.53
2019-02-09T15:21:07.797Z,10.51
2019-02-09T15:26:14.136Z,10.40
2019-02-09T15:31:23.254Z,10.38
2019-02-09T15:36:27.717Z,10.33
2019-02-09T15:41:33.140Z,10.25
2019-02-09T15:46:41.920Z,10.13
2019-02-09T15:51:47.427Z,10.02
2019-02-09T15:56:54.730Z,10.02
2019-02-09T16:02:02.379Z,9.98
2019-02-09T16:07:09.205Z,9.99
2019-02-09T16:12:14.931Z,10.01
2019-02-09T16:17:25.785Z,9.96
2019-02-09T16:22:31.618Z,9.95
2019-02-09T16:27:35.679Z,9.92
2019-02-09T16:32:41.312Z,9.89
2019-02-09T16:37:45.766Z,9.91
2019-02-09T16:42:50.492Z,9.69
2019-02-09T16:47:56.122Z,9.58
2019-02-09T16:53:00.142Z,9.52
2019-02-09T16:58:15.647Z,9.45
2019-02-09T17:03:19.841Z,9.34
2019-02-09T17:08:28.470Z,9.24
2019-02-09T17:13:32.544Z,9.24
2019-02-09T17:18:38.030Z,9.17
2019-02-09T17:23:46.745Z,9.21
2019-02-09T17:28:54.439Z,9.19
2019-02-09T17:34:03.226Z,9.21
2019-02-09T17:39:08.948Z,9.21
2019-02-09T17:44:16.545Z,9.23
2019-02-09T17:49:22.852Z,9.22
2019-02-09T17:54:30.179Z,9.25
2019-02-09T17:59:37.135Z,9.20
2019-02-09T18:04:48.472Z,7.48
2019-02-09T18:09:51.011Z,7.58
2019-02-09T18:15:10.924Z,7.62
2019-02-09T18:20:17.258Z,7.51
2019-02-09T18:25:27.814Z,7.48
2019-02-09T18:30:32.663Z,7.51
2019-02-09T18:35:36.770Z,7.48
2019-02-09T18:40:44.667Z,7.44
2019-02-09T18:45:50.539Z,7.48
2019-02-09T18:50:58.956Z,7.46
2019-02-09T18:56:03.484Z,7.45
2019-02-09T19:01:07.546Z,7.40
2019-02-09T19:06:11.672Z,7.41
2019-02-09T19:11:15.720Z,7.42
2019-02-09T19:16:19.841Z,7.37
2019-02-09T19:21:26.649Z,7.39
2019-02-09T19:26:30.786Z,7.46
2019-02-09T19:31:35.830Z,7.47
2019-02-09T19:36:40.999Z,7.53
2019-02-09T19:41:56.516Z,7.58
2019-02-09T19:47:01.781Z,7.57
2019-02-09T19:52:09.191Z,7.50
2019-02-09T19:57:13.473Z,7.55
2019-02-09T20:02:21.682Z,7.64
2019-02-09T20:07:31.041Z,7.57
2019-02-09T20:12:39.373Z,7.62
2019-02-09T20:17:43.792Z,7.61
2019-02-09T20:22:48.730Z,7.58
2019-02-09T20:27:57.114Z,7.53
2019-02-09T20:33:02.699Z,7.55
2019-02-09T20:38:11.341Z,7.59
2019-02-09T20:43:17.531Z,8.14
2019-02-09T20:48:23.519Z,8.16
2019-02-09T20:53:28.653Z,7.64
2019-02-09T20:58:33.975Z,7.61
2019-02-09T21:03:43.747Z,7.60
2019-02-09T21:08:48.439Z,7.55
2019-02-09T21:13:54.138Z,7.52
2019-02-09T21:18:58.197Z,7.48
2019-02-09T21:24:03.502Z,7.46
2019-02-09T21:29:07.972Z,7.42
2019-02-09T21:34:12.474Z,7.34
2019-02-09T21:39:16.625Z,7.33
2019-02-09T21:44:24.693Z,7.31
2019-02-09T21:49:31.050Z,7.28
2019-02-09T21:54:35.566Z,7.19
2019-02-09T21:59:39.840Z,7.13
2019-02-09T22:04:46.445Z,7.10
2019-02-09T22:09:52.522Z,7.04
2019-02-09T22:14:59.497Z,7.03
2019-02-09T22:20:05.170Z,6.98
2019-02-09T22:25:11.972Z,6.93
2019-02-09T22:30:18.383Z,6.88
2019-02-09T22:35:22.454Z,6.81
2019-02-09T22:40:28.729Z,6.81
2019-02-09T22:45:32.822Z,6.79
2019-02-09T22:50:39.493Z,6.80
2019-02-09T22:55:44.463Z,6.82
2019-02-09T23:00:59.421Z,6.84
2019-02-09T23:06:31.925Z,6.82
2019-02-09T23:11:35.995Z,6.93
2019-02-09T23:16:40.021Z,6.98
2019-02-09T23:21:44.054Z,7.11
2019-02-09T23:26:48.074Z,7.00
2019-02-09T23:31:52.091Z,7.01
2019-02-09T23:36:56.329Z,6.97
2019-02-09T23:42:00.388Z,6.94
2019-02-09T23:47:04.812Z,6.98
2019-02-09T23:52:08.884Z,6.95
2019-02-09T23:57:12.909Z,6.85
